createdAt,value
2019-03-10T00:04:37.903Z,2.9
2019-03-10T00:10:00.659Z,2.8
2019-03-10T00:15:23.305Z,3
2019-03-10T00:20:46.330Z,2.5
2019-03-10T00:26:09.661Z,2.9
2019-03-10T00:31:32.323Z,2.4
2019-03-10T00:36:54.984Z,3.2
2019-03-10T00:42:17.570Z,2.8
2019-03-10T00:47:41.524Z,3
2019-03-10T00:53:05.910Z,2.6
2019-03-10T00:58:29.423Z,2.6
2019-03-10T01:03:52.075Z,2.5
2019-03-10T01:09:14.782Z,2.7
2019-03-10T01:14:37.463Z,2.3
2019-03-10T01:20:00.169Z,3
2019-03-10T01:25:24.296Z,2.5
2019-03-10T01:30:46.891Z,2.9
2019-03-10T01:36:11.033Z,2.8
2019-03-10T01:41:33.615Z,2.5
2019-03-10T01:46:57.656Z,3
2019-03-10T01:52:20.202Z,3
2019-03-10T01:57:44.380Z,2.8
2019-03-10T02:03:07.073Z,2.9
2019-03-10T02:08:29.862Z,3
2019-03-10T02:13:52.537Z,2.8
2019-03-10T02:19:15.165Z,2.7
2019-03-10T02:24:37.846Z,2.6
2019-03-10T02:30:00.969Z,2.6
2019-03-10T02:35:23.810Z,2.8
2019-03-10T02:40:46.450Z,3.2
2019-03-10T02:46:09.281Z,3.1
2019-03-10T02:51:32.198Z,2.9
2019-03-10T02:56:54.833Z,2.5
2019-03-10T03:02:17.470Z,2.6
2019-03-10T03:07:40.129Z,2.8
2019-03-10T03:13:02.928Z,2.3
2019-03-10T03:18:25.716Z,2.8
2019-03-10T03:23:48.355Z,2.4
2019-03-10T03:29:11.999Z,2.8
2019-03-10T03:34:34.720Z,3
2019-03-10T03:39:57.365Z,2.7
2019-03-10T03:45:20.204Z,3.1
2019-03-10T03:50:42.830Z,3
2019-03-10T03:56:06.801Z,2.8
2019-03-10T04:01:29.469Z,2.8
2019-03-10T04:06:52.163Z,3.2
2019-03-10T04:12:14.830Z,3.1
2019-03-10T04:17:38.483Z,3
2019-03-10T04:23:01.166Z,2.7
2019-03-10T04:28:24.936Z,3.1
2019-03-10T04:33:47.965Z,2.7
2019-03-10T04:39:10.890Z,3.4
2019-03-10T04:44:33.563Z,2.9
2019-03-10T04:49:56.443Z,3.1
2019-03-10T04:55:19.233Z,3
2019-03-10T05:00:41.860Z,2.9
2019-03-10T05:06:04.576Z,3.1
2019-03-10T05:11:27.253Z,3.1
2019-03-10T05:16:49.862Z,2.9
2019-03-10T05:22:12.857Z,3.4
2019-03-10T05:27:35.506Z,3.3
2019-03-10T05:32:59.336Z,2.8
2019-03-10T05:38:22.896Z,3.2
2019-03-10T05:43:46.215Z,3.2
2019-03-10T05:49:08.866Z,3.7
2019-03-10T05:54:31.549Z,3
2019-03-10T05:59:55.912Z,2.8
2019-03-10T06:05:27.393Z,2.2
2019-03-10T06:10:50.982Z,2.4
2019-03-10T06:16:13.785Z,2.9
2019-03-10T06:21:37.466Z,3.1
2019-03-10T06:27:00.107Z,3.3
2019-03-10T06:32:22.801Z,3.8
2019-03-10T06:37:51.155Z,3.2
2019-03-10T06:43:14.499Z,3.7
2019-03-10T06:48:37.444Z,3.5
2019-03-10T06:54:01.477Z,4
2019-03-10T06:59:24.380Z,3.2
2019-03-10T07:04:47.841Z,3.3
2019-03-10T07:10:11.430Z,3.5
2019-03-10T07:15:34.272Z,3
2019-03-10T07:20:57.820Z,2.3
2019-03-10T07:26:21.069Z,2.9
2019-03-10T07:31:43.887Z,3.6
2019-03-10T07:37:09.936Z,4.1
2019-03-10T07:42:32.628Z,3.6
2019-03-10T07:47:55.374Z,3.6
2019-03-10T07:53:18.031Z,3.5
2019-03-10T07:58:40.735Z,5.3
2019-03-10T08:04:03.461Z,3.4
2019-03-10T08:09:26.949Z,5.3
2019-03-10T08:14:49.863Z,3.1
2019-03-10T08:20:13.548Z,3.5
2019-03-10T08:25:36.309Z,4
2019-03-10T08:30:58.973Z,2.6
2019-03-10T08:36:21.828Z,2.9
2019-03-10T08:41:45.358Z,2.6
2019-03-10T08:47:08.071Z,3.2
2019-03-10T08:52:30.781Z,2.7
2019-03-10T08:57:53.416Z,2.9
2019-03-10T09:03:16.224Z,2.8
2019-03-10T09:08:38.876Z,2.4
2019-03-10T09:14:02.638Z,2.7
2019-03-10T09:19:25.574Z,2.9
2019-03-10T09:24:48.485Z,3.9
2019-03-10T09:30:11.511Z,4.7
2019-03-10T09:35:34.271Z,3.7
2019-03-10T09:40:56.869Z,4.4
2019-03-10T09:46:19.603Z,4.3
2019-03-10T09:51:42.440Z,4.2
2019-03-10T09:57:05.196Z,3.7
2019-03-10T10:02:28.537Z,4.6
2019-03-10T10:07:52.188Z,4.5
2019-03-10T10:13:15.513Z,4.3
2019-03-10T10:18:39.074Z,4.4
2019-03-10T10:24:01.761Z,4.9
2019-03-10T10:29:24.796Z,4.5
2019-03-10T10:34:47.497Z,4.8
2019-03-10T10:40:10.712Z,4.5
2019-03-10T10:45:33.408Z,4.3
2019-03-10T10:50:56.352Z,4.2
2019-03-10T10:56:18.996Z,4.2
2019-03-10T11:01:41.690Z,4.9
2019-03-10T11:07:05.427Z,5.1
2019-03-10T11:12:28.055Z,5.3
2019-03-10T11:17:51.272Z,5.5
2019-03-10T11:23:14.940Z,5.3
2019-03-10T11:28:38.112Z,5.5
2019-03-10T11:34:01.009Z,5.5
2019-03-10T11:39:22.992Z,5.9
2019-03-10T11:44:45.687Z,5.3
2019-03-10T11:50:08.593Z,5.4
2019-03-10T11:55:31.258Z,5.1
2019-03-10T12:00:53.924Z,4.7
2019-03-10T12:06:16.571Z,5.1
2019-03-10T12:11:39.259Z,5.1
2019-03-10T12:17:01.925Z,5.2
2019-03-10T12:22:24.642Z,5.5
2019-03-10T12:27:48.387Z,5.9
2019-03-10T12:33:11.275Z,4.7
2019-03-10T12:38:33.941Z,5
2019-03-10T12:43:58.872Z,5.7
2019-03-10T12:49:21.546Z,4.6
2019-03-10T12:54:44.854Z,5
2019-03-10T13:00:07.695Z,5.2
2019-03-10T13:05:30.426Z,4.6
2019-03-10T13:10:53.220Z,4.8
2019-03-10T13:16:16.248Z,5.6
2019-03-10T13:21:39.205Z,4.5
2019-03-10T13:27:01.732Z,5.3
2019-03-10T13:32:26.536Z,6.8
2019-03-10T13:37:49.187Z,6.2
2019-03-10T13:43:11.963Z,6.6
2019-03-10T13:48:34.583Z,6.9
2019-03-10T13:53:57.344Z,7.6
2019-03-10T13:59:20.156Z,7.7
2019-03-10T14:04:44.753Z,7.4
2019-03-10T14:10:10.483Z,6.4
2019-03-10T14:15:33.402Z,7.8
2019-03-10T14:20:56.405Z,9.3
2019-03-10T14:26:19.043Z,9.2
2019-03-10T14:31:41.776Z,8.6
2019-03-10T14:37:04.447Z,5.1
2019-03-10T14:42:28.111Z,5.3
2019-03-10T14:47:51.528Z,3
2019-03-10T14:53:14.538Z,2.6
2019-03-10T14:58:38.115Z,2.4
2019-03-10T15:04:01.154Z,2.4
2019-03-10T15:09:23.918Z,2.7
2019-03-10T15:14:49.114Z,2.6
2019-03-10T15:20:11.257Z,3.2
2019-03-10T15:25:34.319Z,2.8
2019-03-10T15:30:56.971Z,3.2
2019-03-10T15:36:30.326Z,2.9
2019-03-10T15:42:02.467Z,3.3
2019-03-10T15:47:25.233Z,4.2
2019-03-10T15:52:56.784Z,3.2
2019-03-10T15:58:19.513Z,1.4
2019-03-10T16:03:52.028Z,1.1
2019-03-10T16:09:24.725Z,1.1
2019-03-10T16:14:48.304Z,1.1
2019-03-10T16:20:20.836Z,1.3
2019-03-10T16:25:56.514Z,1.6
2019-03-10T16:31:19.290Z,2.4
2019-03-10T16:36:53.558Z,4.5
2019-03-10T16:42:18.355Z,4.7
2019-03-10T16:47:41.289Z,5
2019-03-10T16:53:04.322Z,5
2019-03-10T16:58:27.009Z,7.1
2019-03-10T17:03:58.321Z,5.6
2019-03-10T17:09:30.910Z,3.6
2019-03-10T17:15:56.001Z,6
2019-03-10T17:21:28.710Z,8.4
2019-03-10T17:27:04.860Z,7.2
2019-03-10T17:32:55.210Z,6.5
2019-03-10T17:38:17.972Z,7.2
2019-03-10T17:43:40.715Z,5.4
2019-03-10T17:49:14.370Z,4.8
2019-03-10T17:54:46.212Z,3.6
2019-03-10T18:00:12.336Z,4.1
2019-03-10T18:06:28.983Z,5.6
2019-03-10T18:12:29.649Z,5.4
2019-03-10T18:17:53.505Z,4.9
2019-03-10T18:23:16.351Z,5
2019-03-10T18:28:48.270Z,5.5
2019-03-10T18:34:11.092Z,4.8
2019-03-10T18:39:45.952Z,6
2019-03-10T18:45:19.512Z,5.2
2019-03-10T18:50:51.629Z,5
2019-03-10T18:56:14.417Z,5.3
2019-03-10T19:01:49.838Z,5.6
2019-03-10T19:07:12.543Z,5.6
2019-03-10T19:12:35.230Z,6.6
2019-03-10T19:18:17.390Z,6.1
2019-03-10T19:23:41.032Z,6.6
2019-03-10T19:29:12.924Z,8.3
2019-03-10T19:34:45.346Z,10.5
2019-03-10T19:40:44.991Z,11.3
2019-03-10T19:46:08.612Z,11.2
2019-03-10T19:51:41.017Z,10.5
2019-03-10T19:57:04.574Z,8.7
2019-03-10T20:02:27.814Z,9
2019-03-10T20:08:00.884Z,8.6
2019-03-10T20:13:23.889Z,8.3
2019-03-10T20:19:25.856Z,8.1
2019-03-10T20:24:48.344Z,7.5
2019-03-10T20:30:47.642Z,7.3
2019-03-10T20:36:21.231Z,5.9
2019-03-10T20:42:04.631Z,6.3
2019-03-10T20:47:47.143Z,6
2019-03-10T20:53:21.611Z,6.4
2019-03-10T20:58:54.756Z,4.4
2019-03-10T21:04:27.790Z,4.2
2019-03-10T21:09:50.585Z,3.8
2019-03-10T21:16:13.763Z,3.9
2019-03-10T21:21:46.242Z,3.7
2019-03-10T21:27:09.035Z,4.5
2019-03-10T21:32:41.587Z,5.2
2019-03-10T21:38:19.237Z,5.5
2019-03-10T21:43:52.236Z,6.3
2019-03-10T21:49:29.695Z,6.5
2019-03-10T21:55:03.227Z,7.5
2019-03-10T22:00:34.969Z,8.5
2019-03-10T22:05:57.811Z,7.3
2019-03-10T22:11:20.502Z,7.6
2019-03-10T22:16:43.297Z,5.5
2019-03-10T22:22:06.479Z,4.7
2019-03-10T22:27:30.689Z,4.9
2019-03-10T22:33:02.246Z,3.1
2019-03-10T22:38:24.984Z,3.3
2019-03-10T22:43:59.595Z,2.7
2019-03-10T22:49:31.284Z,2.3
2019-03-10T22:55:21.573Z,2.5
2019-03-10T23:00:44.612Z,2.5
2019-03-10T23:06:07.428Z,2.1
2019-03-10T23:11:31.136Z,2.1
2019-03-10T23:16:53.741Z,2.3
2019-03-10T23:22:16.476Z,2.3
2019-03-10T23:27:39.197Z,2
2019-03-10T23:33:01.959Z,2
2019-03-10T23:38:24.660Z,2.9
2019-03-10T23:43:47.495Z,3.1
2019-03-10T23:49:11.032Z,3.1
2019-03-10T23:54:34.433Z,3.8
2019-03-10T23:59:57.351Z,3.4
